Main page
METAR-TAF:

METAR-TAF

Airports :

Lawrence Municipal Airport

Lawrence, Kansas, United States

latitude: 39-00-30N, longitude: 095-12-42W, elevation: 830 ft

Current weather observation

The report was made 43 minutes ago, at 08:52 UTC
Wind 7 mph from the Southwest
Temperature 39°F
Humidity 87%
Pressure 29.87 in. Hg
Visibility: 9 miles
Clear sky

METAR: KLWC 260852Z AUTO 23006KT 9SM CLR 04/02 A2987 RMK AO1 SLP116 T00390022 55001

Time: 04:35 (09:35 UTC)


TAF: missing

Weather observations and forecasts of more than 4000 airports (METAR and TAF reports).

The available stations are represented by yellow and red dots on the map.

Hover mouse over dot to see the name of the station.

Then click to see weather observations and forecasts.

To change the map : click on the green buttons with a black cross to zoom in, on the green button with a dash to zoom out, or on the green arrows for adjacent maps.


METAR-TAF: